Aeroporto :
LOGIN :

Iscrizione | Disclaimer

   EN    FR    IT 

 










Sommario :    VFR   VFR Marginale   IFR   IFR Intensivo   IFR Molto Intensivo
Visibilità : 
Base nubi : 
>= 8 km
>= 3000ft
5 / 8 km
1000 / 3000 ft
1500m / 5 km
500 / 1000 ft
800 / 1500m
200 / 500 ft
< 800m
< 200 ft
Simboli :   Temporali  Nebbia  Neve Forte  Precipitazioni Forti  Vento > 20 kt
SIGMETs :   Varie  Temporali  Ghiacco  Turbolenza  Onda orograficha  Ceneri Vulcaniche






- Altitudine del aeroporto : 278 ft
- Codice IATA : RJK


LDRI - Rijeka

ULTIMO METAR :
  • 231830Z 33004KT 9999 FEW050 19/15 Q1016

METARs OBSOLETI :
  • 231800Z 33005KT 9999 FEW050 20/15 Q1016
  • 231730Z 32003KT 9999 FEW050 20/15 Q1016
  • 231700Z 31003KT 270V360 9999 FEW050 21/14 Q1015
  • 231630Z 26004KT 230V300 9999 FEW050 22/14 Q1015
  • 231600Z 26004KT 170V310 9999 FEW050 22/13 Q1015
  • 231530Z VRB03KT 9999 FEW050 23/13 Q1015
  • 231500Z 25004KT 200V330 9999 FEW050 23/13 Q1016
  • 231430Z 26004KT 210V310 9999 FEW040 23/14 Q1016
  • 231400Z 35003KT 290V070 9999 FEW040 SCT050 21/14 Q1016

TAF TAF LDRI
Valido dal 23 a 18 ore il 24 a 18 ore UTC


231725Z 2318/2418 VRB02KT 9999 FEW050 TX23/2412Z TN14/2404Z
PROB40
TEMPO 2410/2416 34006KT TS FEW040CB



MetMap, La meteo Aeronautica in un colpo d'occhio ! - Copyright ORBIFLY Dicembre 2007 - Disclaimer

ORBIFLY MET'MAP TEAM :

Programmazione e sviluppo : Alexandra Zaïnal
Concezione : Baudouin d'Aumeries
Supporto tecnico e logistico : Manuel Goepfert
Aiuto : Marc-Olivier Méhu
Aiuto per la traduzione : Arnaldo La Scala




FONTI E CREDITI :

   NOAA